Flight Track Log - Related Links

Times and Time Zones

All times are in EDT time to prevent confusion due to time zone crossing. See the LMO5117 flight status page for this flight to view local times or setup timezone preferences in your user account.

Time Position Orientation Groundspeed Altitude Reporting Facility
EDT Latitude Longitude Course Direction KTS MPH feet Rate Location/Type
Sun 05:14:58 PM 26.2839 -81.6433 86° East 250 288 8,800  Level Miami Center
Sun 05:15:58 PM 26.2658 -81.5594 103° East 255 293 9,000 100 Climbing Miami Center
Sun 05:16:58 PM 26.2436 -81.4706 106° East 267 307 9,000  Level Miami Center
Sun 05:17:00 PM 26.0680 -81.3221 106° East  Level FlightAware Approximate
Sun 05:17:58 PM 26.2192 -81.3839 107° East 283 326 9,000  Level Miami Center
Sun 05:18:00 PM 26.1300 -81.3257 353° North  Level FlightAware Approximate
Sun 05:18:58 PM 26.1947 -81.2950 107° East 295 339 9,000  Level Miami Center
Sun 05:19:00 PM 26.1984 -81.3355 353° North  Level FlightAware Approximate
Sun 05:19:58 PM 26.1681 -81.2083 109° East 295 339 8,300  Level Miami Center
Sun 05:21:03 PM 26.1397 -81.1125 108° East 291 335 8,000 -150 Descending Miami Center
Sun 05:21:58 PM 26.1231 -81.0378 104° East 290 334 8,000  Level Miami Center
Sun 05:22:17 PM 26.1111 -81.0119 117° Southeast 290 334 8,000 -200 Level Miami Center
Sun 05:22:58 PM 26.1006 -80.9492 101° East 290 334 7,800 -393 Descending Miami Center
Sun 05:23:18 PM 26.0931 -80.9189 105° East 300 345 7,600 -805 Descending Miami Center
Sun 05:24:20 PM 26.1017 -80.8314 84° East 284 327 6,700 -960 Descending Miami Center
Sun 05:24:58 PM 26.1156 -80.7739 75° East 270 311 6,000 -984 Descending Miami Center
Sun 05:25:21 PM 26.1269 -80.7442 67° East 291 335 5,700 -900 Descending Miami Center
Sun 05:25:58 PM 26.1469 -80.6939 66° East 275 316 5,100 -885 Descending Miami Center
Sun 05:26:22 PM 26.1583 -80.6644 67° East 278 320 4,800 -900 Descending Miami Center
Sun 05:26:58 PM 26.1783 -80.6164 65° Northeast 275 316 4,200 -885 Descending Miami Center
Sun 05:27:23 PM 26.1894 -80.5867 67° East 271 312 3,900 -900 Descending Miami Center
Sun 05:27:58 PM 26.2094 -80.5408 64° Northeast 275 316 3,300 -885 Descending Miami Center
Sun 05:28:24 PM 26.2206 -80.5089 69° East 266 306 3,000 -400 Descending Miami Center
Sun 05:28:58 PM 26.2344 -80.4631 71° East 270 311 2,900  Descending Miami Center
Sun 05:29:26 PM 26.2394 -80.4283 81° East 262 302 3,000  Climbing Miami Center
Sun 05:29:58 PM 26.2489 -80.3822 77° East 265 305 2,900  Descending Miami Center
Sun 05:30:27 PM 26.2497 -80.3431 89° East 275 316 3,000 -200 Climbing Miami Center
Sun 05:31:28 PM 26.2536 -80.2644 87° East 236 272 2,600 -517 Descending Miami Center
Sun 05:32:23 PM 26.2572 -80.2042 86° East 187 215 2,000 -517 Descending Miami Center
Sun 05:33:24 PM 26.2564 -80.1508 91° East 168 193 1,600 -328 Descending Miami Center
Sun 05:34:31 PM 26.2214 -80.1200 142° Southeast 151 174 1,300 -492 Descending Miami Center
Sun 05:35:26 PM 26.2000 -80.1425 223° Southwest 126 145 600 -764 Descending Miami Center
Sun 05:37:00 PM 26.1833 -80.1667 193° South  Level FlightAware Approximate
Sun 05:44:00 PM 26.1973 -80.1707 193° South  Level Estimated

Login

Don't have an account? Register now (free) for customized features, flight alerts, and more!